sensor_id;sensor_type;location;lat;lon;timestamp;P1;durP1;ratioP1;P2;durP2;ratioP2
7789;SDS011;3939;57.130;-2.086;2022-11-09T00:00:38;3.17;;;1.27;;
7789;SDS011;3939;57.130;-2.086;2022-11-09T00:03:04;2.42;;;0.98;;
7789;SDS011;3939;57.130;-2.086;2022-11-09T00:05:30;5.10;;;1.55;;
7789;SDS011;3939;57.130;-2.086;2022-11-09T00:07:55;1.63;;;1.30;;
7789;SDS011;3939;57.130;-2.086;2022-11-09T00:10:21;3.35;;;0.93;;
7789;SDS011;3939;57.130;-2.086;2022-11-09T00:12:47;2.80;;;1.10;;
7789;SDS011;3939;57.130;-2.086;2022-11-09T00:15:12;3.55;;;1.17;;
7789;SDS011;3939;57.130;-2.086;2022-11-09T00:17:38;2.70;;;1.02;;
7789;SDS011;3939;57.130;-2.086;2022-11-09T00:20:04;2.67;;;1.00;;
7789;SDS011;3939;57.130;-2.086;2022-11-09T00:22:30;1.63;;;1.20;;
7789;SDS011;3939;57.130;-2.086;2022-11-09T00:24:55;1.45;;;1.00;;
7789;SDS011;3939;57.130;-2.086;2022-11-09T00:27:21;2.30;;;1.10;;
7789;SDS011;3939;57.130;-2.086;2022-11-09T00:29:46;4.68;;;1.73;;
7789;SDS011;3939;57.130;-2.086;2022-11-09T00:32:12;5.97;;;1.20;;
7789;SDS011;3939;57.130;-2.086;2022-11-09T00:34:38;0.85;;;0.80;;
7789;SDS011;3939;57.130;-2.086;2022-11-09T00:37:03;4.13;;;1.20;;
7789;SDS011;3939;57.130;-2.086;2022-11-09T00:39:29;3.72;;;1.05;;
7789;SDS011;3939;57.130;-2.086;2022-11-09T00:41:55;5.95;;;1.00;;
7789;SDS011;3939;57.130;-2.086;2022-11-09T00:44:20;2.65;;;1.10;;
7789;SDS011;3939;57.130;-2.086;2022-11-09T00:46:46;2.65;;;0.85;;
7789;SDS011;3939;57.130;-2.086;2022-11-09T00:49:12;1.52;;;1.08;;
7789;SDS011;3939;57.130;-2.086;2022-11-09T00:51:37;2.42;;;1.00;;
7789;SDS011;3939;57.130;-2.086;2022-11-09T00:54:03;5.60;;;1.50;;
7789;SDS011;3939;57.130;-2.086;2022-11-09T00:56:29;5.75;;;1.20;;
7789;SDS011;3939;57.130;-2.086;2022-11-09T00:58:54;6.60;;;1.73;;
7789;SDS011;3939;57.130;-2.086;2022-11-09T01:01:20;6.18;;;1.60;;
7789;SDS011;3939;57.130;-2.086;2022-11-09T01:03:46;3.80;;;1.13;;
7789;SDS011;3939;57.130;-2.086;2022-11-09T01:06:14;5.40;;;1.38;;
7789;SDS011;3939;57.130;-2.086;2022-11-09T01:08:41;3.60;;;1.20;;
7789;SDS011;3939;57.130;-2.086;2022-11-09T01:11:07;2.83;;;1.10;;
7789;SDS011;3939;57.130;-2.086;2022-11-09T01:13:34;2.47;;;1.30;;
7789;SDS011;3939;57.130;-2.086;2022-11-09T01:16:03;4.78;;;1.83;;
7789;SDS011;3939;57.130;-2.086;2022-11-09T01:18:31;2.95;;;1.52;;
7789;SDS011;3939;57.130;-2.086;2022-11-09T01:20:57;4.20;;;1.60;;
7789;SDS011;3939;57.130;-2.086;2022-11-09T01:26:00;3.22;;;1.30;;
7789;SDS011;3939;57.130;-2.086;2022-11-09T01:28:28;5.53;;;1.45;;
7789;SDS011;3939;57.130;-2.086;2022-11-09T01:30:54;5.55;;;1.42;;
7789;SDS011;3939;57.130;-2.086;2022-11-09T01:33:19;6.22;;;1.40;;
7789;SDS011;3939;57.130;-2.086;2022-11-09T01:35:45;4.97;;;1.45;;
7789;SDS011;3939;57.130;-2.086;2022-11-09T01:38:11;4.03;;;1.35;;
7789;SDS011;3939;57.130;-2.086;2022-11-09T01:40:37;5.13;;;1.27;;
7789;SDS011;3939;57.130;-2.086;2022-11-09T01:43:17;4.88;;;1.40;;
7789;SDS011;3939;57.130;-2.086;2022-11-09T01:45:55;5.05;;;1.52;;
7789;SDS011;3939;57.130;-2.086;2022-11-09T01:51:25;3.33;;;1.30;;
7789;SDS011;3939;57.130;-2.086;2022-11-09T01:54:01;3.28;;;1.52;;
7789;SDS011;3939;57.130;-2.086;2022-11-09T01:56:36;1.85;;;1.48;;
7789;SDS011;3939;57.130;-2.086;2022-11-09T01:59:04;3.27;;;1.30;;
7789;SDS011;3939;57.130;-2.086;2022-11-09T02:01:35;5.32;;;1.58;;
7789;SDS011;3939;57.130;-2.086;2022-11-09T02:04:06;3.67;;;1.50;;
7789;SDS011;3939;57.130;-2.086;2022-11-09T02:06:32;2.17;;;1.10;;
7789;SDS011;3939;57.130;-2.086;2022-11-09T02:09:02;5.38;;;1.60;;
7789;SDS011;3939;57.130;-2.086;2022-11-09T02:11:36;3.20;;;1.20;;
7789;SDS011;3939;57.130;-2.086;2022-11-09T02:14:02;5.20;;;1.60;;
7789;SDS011;3939;57.130;-2.086;2022-11-09T02:16:29;1.77;;;1.30;;
7789;SDS011;3939;57.130;-2.086;2022-11-09T02:18:57;2.33;;;1.30;;
7789;SDS011;3939;57.130;-2.086;2022-11-09T02:21:26;3.67;;;0.93;;
7789;SDS011;3939;57.130;-2.086;2022-11-09T02:23:54;3.43;;;1.97;;
7789;SDS011;3939;57.130;-2.086;2022-11-09T02:26:34;3.57;;;1.27;;
7789;SDS011;3939;57.130;-2.086;2022-11-09T02:29:05;7.20;;;1.37;;
7789;SDS011;3939;57.130;-2.086;2022-11-09T02:31:34;7.40;;;1.50;;
7789;SDS011;3939;57.130;-2.086;2022-11-09T02:34:04;3.17;;;1.60;;
7789;SDS011;3939;57.130;-2.086;2022-11-09T02:36:33;2.63;;;1.50;;
7789;SDS011;3939;57.130;-2.086;2022-11-09T02:38:59;1.87;;;1.30;;
7789;SDS011;3939;57.130;-2.086;2022-11-09T02:41:25;2.07;;;1.60;;
7789;SDS011;3939;57.130;-2.086;2022-11-09T02:43:54;5.97;;;1.87;;
7789;SDS011;3939;57.130;-2.086;2022-11-09T02:46:24;1.63;;;1.20;;
7789;SDS011;3939;57.130;-2.086;2022-11-09T02:49:00;1.40;;;1.10;;
7789;SDS011;3939;57.130;-2.086;2022-11-09T02:51:26;4.53;;;1.65;;
7789;SDS011;3939;57.130;-2.086;2022-11-09T02:53:52;2.45;;;1.30;;
7789;SDS011;3939;57.130;-2.086;2022-11-09T02:56:18;1.77;;;1.35;;
7789;SDS011;3939;57.130;-2.086;2022-11-09T02:58:44;1.20;;;1.10;;
7789;SDS011;3939;57.130;-2.086;2022-11-09T03:01:09;1.67;;;1.20;;
7789;SDS011;3939;57.130;-2.086;2022-11-09T03:03:35;3.53;;;1.73;;
7789;SDS011;3939;57.130;-2.086;2022-11-09T03:06:01;3.33;;;1.77;;
7789;SDS011;3939;57.130;-2.086;2022-11-09T03:08:27;4.03;;;1.42;;
7789;SDS011;3939;57.130;-2.086;2022-11-09T03:10:53;6.40;;;1.58;;
7789;SDS011;3939;57.130;-2.086;2022-11-09T03:13:18;2.13;;;1.13;;
7789;SDS011;3939;57.130;-2.086;2022-11-09T03:15:44;2.67;;;1.40;;
7789;SDS011;3939;57.130;-2.086;2022-11-09T03:18:10;2.58;;;1.20;;
7789;SDS011;3939;57.130;-2.086;2022-11-09T03:20:35;2.65;;;1.30;;
7789;SDS011;3939;57.130;-2.086;2022-11-09T03:23:01;1.42;;;1.10;;
7789;SDS011;3939;57.130;-2.086;2022-11-09T03:25:27;4.55;;;1.42;;
7789;SDS011;3939;57.130;-2.086;2022-11-09T03:27:59;2.33;;;1.05;;
7789;SDS011;3939;57.130;-2.086;2022-11-09T03:30:26;5.38;;;1.23;;
7789;SDS011;3939;57.130;-2.086;2022-11-09T03:33:05;3.53;;;1.15;;
7789;SDS011;3939;57.130;-2.086;2022-11-09T03:35:34;4.07;;;1.63;;
7789;SDS011;3939;57.130;-2.086;2022-11-09T03:38:03;3.67;;;1.30;;
7789;SDS011;3939;57.130;-2.086;2022-11-09T03:40:29;4.20;;;1.40;;
7789;SDS011;3939;57.130;-2.086;2022-11-09T03:42:55;2.03;;;1.50;;
7789;SDS011;3939;57.130;-2.086;2022-11-09T03:45:21;2.60;;;1.08;;
7789;SDS011;3939;57.130;-2.086;2022-11-09T03:47:47;2.53;;;1.20;;
7789;SDS011;3939;57.130;-2.086;2022-11-09T03:50:13;1.58;;;1.17;;
7789;SDS011;3939;57.130;-2.086;2022-11-09T03:52:42;2.13;;;1.17;;
7789;SDS011;3939;57.130;-2.086;2022-11-09T03:55:09;4.15;;;1.30;;
7789;SDS011;3939;57.130;-2.086;2022-11-09T03:57:35;3.75;;;1.42;;
7789;SDS011;3939;57.130;-2.086;2022-11-09T04:00:01;3.67;;;1.85;;
7789;SDS011;3939;57.130;-2.086;2022-11-09T04:02:27;3.63;;;1.60;;
7789;SDS011;3939;57.130;-2.086;2022-11-09T04:04:53;2.55;;;1.50;;
7789;SDS011;3939;57.130;-2.086;2022-11-09T04:07:18;3.13;;;1.45;;
7789;SDS011;3939;57.130;-2.086;2022-11-09T04:09:44;3.55;;;1.65;;
7789;SDS011;3939;57.130;-2.086;2022-11-09T04:12:09;2.85;;;1.30;;
7789;SDS011;3939;57.130;-2.086;2022-11-09T04:14:35;5.45;;;1.70;;
7789;SDS011;3939;57.130;-2.086;2022-11-09T04:17:01;4.13;;;1.60;;
7789;SDS011;3939;57.130;-2.086;2022-11-09T04:19:26;2.67;;;1.45;;
7789;SDS011;3939;57.130;-2.086;2022-11-09T04:21:52;4.20;;;1.88;;
7789;SDS011;3939;57.130;-2.086;2022-11-09T04:24:18;3.00;;;1.65;;
7789;SDS011;3939;57.130;-2.086;2022-11-09T04:26:45;3.85;;;1.40;;
7789;SDS011;3939;57.130;-2.086;2022-11-09T04:29:11;6.35;;;1.85;;
7789;SDS011;3939;57.130;-2.086;2022-11-09T04:31:37;2.22;;;1.75;;
7789;SDS011;3939;57.130;-2.086;2022-11-09T04:34:02;4.55;;;1.80;;
7789;SDS011;3939;57.130;-2.086;2022-11-09T04:36:28;2.10;;;1.48;;
7789;SDS011;3939;57.130;-2.086;2022-11-09T04:38:54;3.00;;;1.58;;
7789;SDS011;3939;57.130;-2.086;2022-11-09T04:41:19;6.07;;;1.67;;
7789;SDS011;3939;57.130;-2.086;2022-11-09T04:43:45;4.50;;;2.00;;
7789;SDS011;3939;57.130;-2.086;2022-11-09T04:46:11;4.32;;;1.80;;
7789;SDS011;3939;57.130;-2.086;2022-11-09T04:48:36;3.13;;;1.45;;
7789;SDS011;3939;57.130;-2.086;2022-11-09T04:51:03;3.47;;;1.52;;
7789;SDS011;3939;57.130;-2.086;2022-11-09T04:53:30;2.30;;;1.70;;
7789;SDS011;3939;57.130;-2.086;2022-11-09T04:55:57;3.75;;;1.35;;
7789;SDS011;3939;57.130;-2.086;2022-11-09T04:58:23;3.58;;;1.88;;
7789;SDS011;3939;57.130;-2.086;2022-11-09T05:00:49;1.75;;;1.42;;
7789;SDS011;3939;57.130;-2.086;2022-11-09T05:03:14;6.85;;;1.88;;
7789;SDS011;3939;57.130;-2.086;2022-11-09T05:05:40;3.88;;;2.00;;
7789;SDS011;3939;57.130;-2.086;2022-11-09T05:08:06;5.20;;;2.08;;
7789;SDS011;3939;57.130;-2.086;2022-11-09T05:10:32;3.22;;;1.48;;
7789;SDS011;3939;57.130;-2.086;2022-11-09T05:15:25;4.00;;;1.70;;
7789;SDS011;3939;57.130;-2.086;2022-11-09T05:17:51;2.35;;;1.38;;
7789;SDS011;3939;57.130;-2.086;2022-11-09T05:20:17;3.78;;;1.90;;
7789;SDS011;3939;57.130;-2.086;2022-11-09T05:22:43;1.88;;;1.10;;
7789;SDS011;3939;57.130;-2.086;2022-11-09T05:25:27;3.25;;;1.30;;
7789;SDS011;3939;57.130;-2.086;2022-11-09T05:27:53;2.25;;;1.33;;
7789;SDS011;3939;57.130;-2.086;2022-11-09T05:30:18;2.88;;;1.00;;
7789;SDS011;3939;57.130;-2.086;2022-11-09T05:32:44;6.05;;;1.52;;
7789;SDS011;3939;57.130;-2.086;2022-11-09T05:35:10;1.77;;;1.25;;
7789;SDS011;3939;57.130;-2.086;2022-11-09T05:37:37;3.25;;;1.55;;
7789;SDS011;3939;57.130;-2.086;2022-11-09T05:40:03;11.02;;;2.35;;
7789;SDS011;3939;57.130;-2.086;2022-11-09T05:42:29;2.38;;;1.23;;
7789;SDS011;3939;57.130;-2.086;2022-11-09T05:44:55;3.67;;;1.20;;
7789;SDS011;3939;57.130;-2.086;2022-11-09T05:47:21;3.15;;;0.98;;
7789;SDS011;3939;57.130;-2.086;2022-11-09T05:49:46;1.45;;;0.80;;
7789;SDS011;3939;57.130;-2.086;2022-11-09T05:52:12;1.38;;;0.80;;
7789;SDS011;3939;57.130;-2.086;2022-11-09T05:54:38;3.55;;;1.00;;
7789;SDS011;3939;57.130;-2.086;2022-11-09T05:57:03;4.13;;;1.10;;
7789;SDS011;3939;57.130;-2.086;2022-11-09T05:59:29;2.88;;;1.08;;
7789;SDS011;3939;57.130;-2.086;2022-11-09T06:01:55;3.80;;;1.05;;
7789;SDS011;3939;57.130;-2.086;2022-11-09T06:04:20;4.15;;;1.40;;
7789;SDS011;3939;57.130;-2.086;2022-11-09T06:06:46;4.40;;;1.07;;
7789;SDS011;3939;57.130;-2.086;2022-11-09T06:09:12;5.87;;;2.00;;
7789;SDS011;3939;57.130;-2.086;2022-11-09T06:11:37;4.28;;;1.42;;
7789;SDS011;3939;57.130;-2.086;2022-11-09T06:14:03;3.05;;;1.10;;
7789;SDS011;3939;57.130;-2.086;2022-11-09T06:16:29;2.67;;;1.00;;
7789;SDS011;3939;57.130;-2.086;2022-11-09T06:18:54;4.35;;;1.75;;
7789;SDS011;3939;57.130;-2.086;2022-11-09T06:21:20;2.88;;;1.00;;
7789;SDS011;3939;57.130;-2.086;2022-11-09T06:23:46;3.37;;;0.70;;
7789;SDS011;3939;57.130;-2.086;2022-11-09T06:26:12;2.80;;;0.70;;
7789;SDS011;3939;57.130;-2.086;2022-11-09T06:28:38;3.03;;;0.70;;
7789;SDS011;3939;57.130;-2.086;2022-11-09T06:31:05;5.53;;;1.10;;
7789;SDS011;3939;57.130;-2.086;2022-11-09T06:33:33;3.63;;;0.75;;
7789;SDS011;3939;57.130;-2.086;2022-11-09T06:36:00;2.65;;;0.90;;
7789;SDS011;3939;57.130;-2.086;2022-11-09T06:38:26;2.45;;;0.90;;
7789;SDS011;3939;57.130;-2.086;2022-11-09T06:40:52;4.22;;;1.15;;
7789;SDS011;3939;57.130;-2.086;2022-11-09T06:43:19;3.38;;;0.98;;
7789;SDS011;3939;57.130;-2.086;2022-11-09T06:45:45;6.25;;;1.30;;
7789;SDS011;3939;57.130;-2.086;2022-11-09T06:48:10;4.53;;;1.05;;
7789;SDS011;3939;57.130;-2.086;2022-11-09T06:50:36;1.55;;;0.90;;
7789;SDS011;3939;57.130;-2.086;2022-11-09T06:53:03;7.07;;;1.98;;
7789;SDS011;3939;57.130;-2.086;2022-11-09T06:55:32;3.35;;;1.38;;
7789;SDS011;3939;57.130;-2.086;2022-11-09T06:57:59;2.47;;;1.20;;
7789;SDS011;3939;57.130;-2.086;2022-11-09T07:00:28;2.63;;;0.95;;
7789;SDS011;3939;57.130;-2.086;2022-11-09T07:02:54;7.68;;;1.23;;
7789;SDS011;3939;57.130;-2.086;2022-11-09T07:05:20;3.90;;;1.02;;
7789;SDS011;3939;57.130;-2.086;2022-11-09T07:07:46;3.20;;;0.80;;
7789;SDS011;3939;57.130;-2.086;2022-11-09T07:10:11;4.88;;;0.93;;
7789;SDS011;3939;57.130;-2.086;2022-11-09T07:12:37;4.43;;;0.95;;
7789;SDS011;3939;57.130;-2.086;2022-11-09T07:15:03;5.88;;;1.17;;
7789;SDS011;3939;57.130;-2.086;2022-11-09T07:17:30;6.03;;;1.17;;
7789;SDS011;3939;57.130;-2.086;2022-11-09T07:19:56;4.65;;;1.75;;
7789;SDS011;3939;57.130;-2.086;2022-11-09T07:22:22;4.45;;;1.25;;
7789;SDS011;3939;57.130;-2.086;2022-11-09T07:24:48;3.92;;;1.02;;
7789;SDS011;3939;57.130;-2.086;2022-11-09T07:27:13;7.15;;;1.10;;
7789;SDS011;3939;57.130;-2.086;2022-11-09T07:29:40;4.78;;;1.30;;
7789;SDS011;3939;57.130;-2.086;2022-11-09T07:32:06;2.47;;;0.90;;
7789;SDS011;3939;57.130;-2.086;2022-11-09T07:34:31;6.15;;;1.10;;
7789;SDS011;3939;57.130;-2.086;2022-11-09T07:36:57;3.63;;;1.05;;
7789;SDS011;3939;57.130;-2.086;2022-11-09T07:39:23;4.63;;;1.25;;
7789;SDS011;3939;57.130;-2.086;2022-11-09T07:41:49;6.13;;;1.00;;
7789;SDS011;3939;57.130;-2.086;2022-11-09T07:44:15;4.97;;;1.20;;
7789;SDS011;3939;57.130;-2.086;2022-11-09T07:46:45;5.47;;;1.20;;
7789;SDS011;3939;57.130;-2.086;2022-11-09T07:49:12;4.18;;;1.25;;
7789;SDS011;3939;57.130;-2.086;2022-11-09T07:51:39;4.35;;;1.10;;
7789;SDS011;3939;57.130;-2.086;2022-11-09T07:54:05;4.57;;;1.00;;
7789;SDS011;3939;57.130;-2.086;2022-11-09T07:56:31;6.13;;;1.35;;
7789;SDS011;3939;57.130;-2.086;2022-11-09T07:58:56;5.28;;;1.05;;
7789;SDS011;3939;57.130;-2.086;2022-11-09T08:01:22;3.88;;;1.15;;
7789;SDS011;3939;57.130;-2.086;2022-11-09T08:03:48;5.85;;;1.00;;
7789;SDS011;3939;57.130;-2.086;2022-11-09T08:06:13;3.15;;;1.10;;
7789;SDS011;3939;57.130;-2.086;2022-11-09T08:08:39;5.35;;;1.05;;
7789;SDS011;3939;57.130;-2.086;2022-11-09T08:11:05;3.45;;;0.82;;
7789;SDS011;3939;57.130;-2.086;2022-11-09T08:13:31;5.38;;;0.93;;
7789;SDS011;3939;57.130;-2.086;2022-11-09T08:15:59;5.10;;;1.13;;
7789;SDS011;3939;57.130;-2.086;2022-11-09T08:18:26;2.55;;;0.90;;
7789;SDS011;3939;57.130;-2.086;2022-11-09T08:20:52;4.55;;;1.27;;
7789;SDS011;3939;57.130;-2.086;2022-11-09T08:23:18;6.35;;;1.48;;
7789;SDS011;3939;57.130;-2.086;2022-11-09T08:25:45;5.80;;;1.60;;
7789;SDS011;3939;57.130;-2.086;2022-11-09T08:28:11;10.65;;;2.80;;
7789;SDS011;3939;57.130;-2.086;2022-11-09T08:30:40;9.27;;;2.78;;
7789;SDS011;3939;57.130;-2.086;2022-11-09T08:33:06;5.45;;;1.67;;
7789;SDS011;3939;57.130;-2.086;2022-11-09T08:35:32;3.83;;;1.50;;
7789;SDS011;3939;57.130;-2.086;2022-11-09T08:38:01;5.63;;;1.70;;
7789;SDS011;3939;57.130;-2.086;2022-11-09T08:40:29;4.63;;;0.93;;
7789;SDS011;3939;57.130;-2.086;2022-11-09T08:42:59;4.88;;;1.08;;
7789;SDS011;3939;57.130;-2.086;2022-11-09T08:45:26;15.57;;;1.83;;
7789;SDS011;3939;57.130;-2.086;2022-11-09T08:47:56;5.38;;;1.40;;
7789;SDS011;3939;57.130;-2.086;2022-11-09T08:50:23;5.93;;;1.85;;
7789;SDS011;3939;57.130;-2.086;2022-11-09T08:52:49;5.13;;;1.35;;
7789;SDS011;3939;57.130;-2.086;2022-11-09T08:55:14;7.43;;;1.42;;
7789;SDS011;3939;57.130;-2.086;2022-11-09T08:57:40;4.93;;;1.35;;
7789;SDS011;3939;57.130;-2.086;2022-11-09T09:00:06;3.65;;;1.15;;
7789;SDS011;3939;57.130;-2.086;2022-11-09T09:02:32;3.35;;;1.10;;
7789;SDS011;3939;57.130;-2.086;2022-11-09T09:04:58;7.40;;;1.27;;
7789;SDS011;3939;57.130;-2.086;2022-11-09T09:07:24;4.32;;;1.00;;
7789;SDS011;3939;57.130;-2.086;2022-11-09T09:09:50;5.10;;;1.58;;
7789;SDS011;3939;57.130;-2.086;2022-11-09T09:12:15;4.22;;;1.55;;
7789;SDS011;3939;57.130;-2.086;2022-11-09T09:14:42;3.53;;;1.30;;
7789;SDS011;3939;57.130;-2.086;2022-11-09T09:17:08;5.32;;;1.55;;
7789;SDS011;3939;57.130;-2.086;2022-11-09T09:19:34;6.28;;;1.60;;
7789;SDS011;3939;57.130;-2.086;2022-11-09T09:22:00;8.07;;;1.73;;
7789;SDS011;3939;57.130;-2.086;2022-11-09T09:24:26;7.13;;;1.80;;
7789;SDS011;3939;57.130;-2.086;2022-11-09T09:26:52;6.03;;;1.33;;
7789;SDS011;3939;57.130;-2.086;2022-11-09T09:29:18;10.75;;;1.73;;
7789;SDS011;3939;57.130;-2.086;2022-11-09T09:31:44;8.70;;;1.95;;
7789;SDS011;3939;57.130;-2.086;2022-11-09T09:34:10;7.03;;;1.30;;
7789;SDS011;3939;57.130;-2.086;2022-11-09T09:36:38;5.85;;;1.73;;
7789;SDS011;3939;57.130;-2.086;2022-11-09T09:39:04;5.32;;;1.45;;
7789;SDS011;3939;57.130;-2.086;2022-11-09T09:44:06;9.35;;;1.42;;
7789;SDS011;3939;57.130;-2.086;2022-11-09T09:46:52;7.55;;;1.85;;
7789;SDS011;3939;57.130;-2.086;2022-11-09T09:49:29;6.47;;;1.83;;
7789;SDS011;3939;57.130;-2.086;2022-11-09T09:55:06;6.20;;;2.10;;
7789;SDS011;3939;57.130;-2.086;2022-11-09T09:57:40;7.30;;;1.80;;
7789;SDS011;3939;57.130;-2.086;2022-11-09T10:00:14;6.05;;;1.60;;
7789;SDS011;3939;57.130;-2.086;2022-11-09T10:02:47;5.18;;;1.75;;
7789;SDS011;3939;57.130;-2.086;2022-11-09T10:05:15;11.45;;;2.20;;
7789;SDS011;3939;57.130;-2.086;2022-11-09T10:26:48;11.45;;;2.45;;
7789;SDS011;3939;57.130;-2.086;2022-11-09T10:31:53;10.70;;;2.70;;
7789;SDS011;3939;57.130;-2.086;2022-11-09T10:34:27;7.47;;;2.28;;
7789;SDS011;3939;57.130;-2.086;2022-11-09T10:37:08;9.50;;;2.28;;
7789;SDS011;3939;57.130;-2.086;2022-11-09T10:39:43;9.32;;;2.50;;
7789;SDS011;3939;57.130;-2.086;2022-11-09T10:42:15;11.50;;;2.45;;
7789;SDS011;3939;57.130;-2.086;2022-11-09T10:44:41;11.43;;;2.47;;
7789;SDS011;3939;57.130;-2.086;2022-11-09T10:49:32;13.52;;;2.78;;
7789;SDS011;3939;57.130;-2.086;2022-11-09T10:51:58;15.50;;;2.85;;
7789;SDS011;3939;57.130;-2.086;2022-11-09T10:54:25;12.63;;;2.17;;
7789;SDS011;3939;57.130;-2.086;2022-11-09T10:57:18;9.68;;;2.22;;
7789;SDS011;3939;57.130;-2.086;2022-11-09T10:59:55;8.23;;;2.40;;
7789;SDS011;3939;57.130;-2.086;2022-11-09T11:07:31;11.32;;;2.55;;
7789;SDS011;3939;57.130;-2.086;2022-11-09T11:12:39;14.02;;;2.65;;
7789;SDS011;3939;57.130;-2.086;2022-11-09T11:17:49;7.32;;;2.17;;
7789;SDS011;3939;57.130;-2.086;2022-11-09T11:23:11;14.32;;;2.90;;
7789;SDS011;3939;57.130;-2.086;2022-11-09T11:28:29;8.15;;;2.65;;
7789;SDS011;3939;57.130;-2.086;2022-11-09T11:30:58;12.35;;;2.33;;
7789;SDS011;3939;57.130;-2.086;2022-11-09T11:33:24;9.50;;;2.65;;
7789;SDS011;3939;57.130;-2.086;2022-11-09T11:38:40;10.02;;;2.42;;
7789;SDS011;3939;57.130;-2.086;2022-11-09T11:41:38;8.45;;;2.28;;
7789;SDS011;3939;57.130;-2.086;2022-11-09T11:50:57;9.35;;;2.75;;
7789;SDS011;3939;57.130;-2.086;2022-11-09T12:16:23;6.28;;;2.05;;
7789;SDS011;3939;57.130;-2.086;2022-11-09T12:18:25;8.90;;;1.85;;
7789;SDS011;3939;57.130;-2.086;2022-11-09T12:26:29;7.47;;;1.92;;
7789;SDS011;3939;57.130;-2.086;2022-11-09T12:34:13;11.35;;;2.05;;
7789;SDS011;3939;57.130;-2.086;2022-11-09T12:39:25;8.93;;;2.10;;
7789;SDS011;3939;57.130;-2.086;2022-11-09T12:42:09;8.85;;;1.73;;
7789;SDS011;3939;57.130;-2.086;2022-11-09T12:47:29;5.80;;;2.22;;
7789;SDS011;3939;57.130;-2.086;2022-11-09T12:50:04;9.88;;;2.13;;
7789;SDS011;3939;57.130;-2.086;2022-11-09T12:52:30;5.20;;;2.10;;
7789;SDS011;3939;57.130;-2.086;2022-11-09T12:54:56;8.00;;;1.83;;
7789;SDS011;3939;57.130;-2.086;2022-11-09T12:57:28;7.82;;;2.20;;
7789;SDS011;3939;57.130;-2.086;2022-11-09T12:59:55;9.93;;;2.22;;
7789;SDS011;3939;57.130;-2.086;2022-11-09T13:02:32;9.38;;;2.45;;
7789;SDS011;3939;57.130;-2.086;2022-11-09T13:05:04;7.18;;;1.83;;
7789;SDS011;3939;57.130;-2.086;2022-11-09T13:10:03;13.05;;;2.22;;
7789;SDS011;3939;57.130;-2.086;2022-11-09T13:23:44;5.70;;;1.60;;
7789;SDS011;3939;57.130;-2.086;2022-11-09T13:34:50;5.10;;;1.67;;
7789;SDS011;3939;57.130;-2.086;2022-11-09T13:47:57;7.47;;;2.03;;
7789;SDS011;3939;57.130;-2.086;2022-11-09T13:50:27;4.72;;;1.70;;
7789;SDS011;3939;57.130;-2.086;2022-11-09T13:52:56;11.10;;;2.63;;
7789;SDS011;3939;57.130;-2.086;2022-11-09T13:58:19;7.25;;;2.00;;
7789;SDS011;3939;57.130;-2.086;2022-11-09T14:00:50;8.48;;;2.47;;
7789;SDS011;3939;57.130;-2.086;2022-11-09T14:03:20;9.77;;;1.83;;
7789;SDS011;3939;57.130;-2.086;2022-11-09T14:06:09;13.68;;;2.38;;
7789;SDS011;3939;57.130;-2.086;2022-11-09T14:08:37;8.75;;;1.92;;
7789;SDS011;3939;57.130;-2.086;2022-11-09T14:11:23;8.95;;;2.00;;
7789;SDS011;3939;57.130;-2.086;2022-11-09T14:22:14;12.95;;;2.17;;
7789;SDS011;3939;57.130;-2.086;2022-11-09T14:24:42;7.38;;;2.10;;
7789;SDS011;3939;57.130;-2.086;2022-11-09T14:29:34;8.68;;;2.13;;
7789;SDS011;3939;57.130;-2.086;2022-11-09T14:32:17;10.73;;;2.42;;
7789;SDS011;3939;57.130;-2.086;2022-11-09T14:34:51;9.68;;;2.58;;
7789;SDS011;3939;57.130;-2.086;2022-11-09T14:37:16;10.25;;;2.60;;
7789;SDS011;3939;57.130;-2.086;2022-11-09T14:39:47;9.60;;;2.25;;
7789;SDS011;3939;57.130;-2.086;2022-11-09T14:42:16;13.77;;;2.38;;
7789;SDS011;3939;57.130;-2.086;2022-11-09T14:44:44;7.45;;;2.03;;
7789;SDS011;3939;57.130;-2.086;2022-11-09T14:51:26;9.57;;;2.33;;
7789;SDS011;3939;57.130;-2.086;2022-11-09T14:54:54;9.63;;;1.73;;
7789;SDS011;3939;57.130;-2.086;2022-11-09T14:57:23;7.82;;;2.13;;
7789;SDS011;3939;57.130;-2.086;2022-11-09T14:59:49;6.70;;;1.83;;
7789;SDS011;3939;57.130;-2.086;2022-11-09T15:02:16;5.63;;;1.63;;
7789;SDS011;3939;57.130;-2.086;2022-11-09T15:04:52;6.68;;;1.60;;
7789;SDS011;3939;57.130;-2.086;2022-11-09T15:07:26;9.65;;;1.98;;
7789;SDS011;3939;57.130;-2.086;2022-11-09T15:10:16;4.32;;;1.48;;
7789;SDS011;3939;57.130;-2.086;2022-11-09T15:16:02;6.18;;;2.17;;
7789;SDS011;3939;57.130;-2.086;2022-11-09T15:18:29;7.63;;;2.53;;
7789;SDS011;3939;57.130;-2.086;2022-11-09T15:23:50;7.97;;;2.20;;
7789;SDS011;3939;57.130;-2.086;2022-11-09T15:26:59;10.00;;;2.40;;
7789;SDS011;3939;57.130;-2.086;2022-11-09T15:29:58;10.27;;;2.33;;
7789;SDS011;3939;57.130;-2.086;2022-11-09T15:42:02;13.48;;;2.67;;
7789;SDS011;3939;57.130;-2.086;2022-11-09T15:44:45;12.27;;;2.75;;
7789;SDS011;3939;57.130;-2.086;2022-11-09T15:47:21;12.07;;;2.38;;
7789;SDS011;3939;57.130;-2.086;2022-11-09T15:53:08;13.80;;;2.95;;
7789;SDS011;3939;57.130;-2.086;2022-11-09T15:55:44;12.70;;;2.35;;
7789;SDS011;3939;57.130;-2.086;2022-11-09T15:58:11;13.40;;;2.90;;
7789;SDS011;3939;57.130;-2.086;2022-11-09T16:00:39;11.27;;;2.95;;
7789;SDS011;3939;57.130;-2.086;2022-11-09T16:03:11;14.57;;;3.72;;
7789;SDS011;3939;57.130;-2.086;2022-11-09T16:06:31;13.57;;;2.88;;
7789;SDS011;3939;57.130;-2.086;2022-11-09T16:08:33;11.50;;;2.83;;
7789;SDS011;3939;57.130;-2.086;2022-11-09T16:11:02;11.23;;;2.90;;
7789;SDS011;3939;57.130;-2.086;2022-11-09T16:13:36;18.35;;;3.50;;
7789;SDS011;3939;57.130;-2.086;2022-11-09T16:16:03;13.50;;;3.55;;
7789;SDS011;3939;57.130;-2.086;2022-11-09T16:18:32;17.08;;;3.40;;
7789;SDS011;3939;57.130;-2.086;2022-11-09T16:21:08;19.58;;;3.33;;
7789;SDS011;3939;57.130;-2.086;2022-11-09T16:23:36;13.02;;;2.72;;
7789;SDS011;3939;57.130;-2.086;2022-11-09T16:26:05;7.45;;;2.13;;
7789;SDS011;3939;57.130;-2.086;2022-11-09T16:28:33;15.35;;;3.10;;
7789;SDS011;3939;57.130;-2.086;2022-11-09T16:30:59;13.63;;;3.13;;
7789;SDS011;3939;57.130;-2.086;2022-11-09T16:33:25;14.85;;;3.00;;
7789;SDS011;3939;57.130;-2.086;2022-11-09T16:35:52;11.88;;;2.13;;
7789;SDS011;3939;57.130;-2.086;2022-11-09T16:38:19;11.68;;;2.15;;
7789;SDS011;3939;57.130;-2.086;2022-11-09T16:40:45;10.55;;;2.13;;
7789;SDS011;3939;57.130;-2.086;2022-11-09T16:43:10;13.88;;;2.45;;
7789;SDS011;3939;57.130;-2.086;2022-11-09T16:45:36;6.47;;;2.50;;
7789;SDS011;3939;57.130;-2.086;2022-11-09T16:48:03;8.25;;;2.38;;
7789;SDS011;3939;57.130;-2.086;2022-11-09T16:50:35;5.57;;;1.95;;
7789;SDS011;3939;57.130;-2.086;2022-11-09T16:53:00;11.70;;;2.00;;
7789;SDS011;3939;57.130;-2.086;2022-11-09T16:55:26;11.90;;;2.70;;
7789;SDS011;3939;57.130;-2.086;2022-11-09T16:57:52;12.20;;;2.78;;
7789;SDS011;3939;57.130;-2.086;2022-11-09T17:00:18;11.30;;;2.05;;
7789;SDS011;3939;57.130;-2.086;2022-11-09T17:02:47;12.98;;;2.88;;
7789;SDS011;3939;57.130;-2.086;2022-11-09T17:05:12;12.90;;;2.78;;
7789;SDS011;3939;57.130;-2.086;2022-11-09T17:07:38;6.28;;;1.95;;
7789;SDS011;3939;57.130;-2.086;2022-11-09T17:10:04;13.20;;;2.58;;
7789;SDS011;3939;57.130;-2.086;2022-11-09T17:12:41;11.48;;;3.20;;
7789;SDS011;3939;57.130;-2.086;2022-11-09T17:15:09;12.10;;;2.40;;
7789;SDS011;3939;57.130;-2.086;2022-11-09T17:17:35;11.82;;;1.95;;
7789;SDS011;3939;57.130;-2.086;2022-11-09T17:20:04;12.98;;;2.25;;
7789;SDS011;3939;57.130;-2.086;2022-11-09T17:22:34;9.77;;;2.30;;
7789;SDS011;3939;57.130;-2.086;2022-11-09T17:25:10;10.93;;;2.30;;
7789;SDS011;3939;57.130;-2.086;2022-11-09T17:27:36;11.75;;;2.63;;
7789;SDS011;3939;57.130;-2.086;2022-11-09T17:30:03;10.27;;;2.10;;
7789;SDS011;3939;57.130;-2.086;2022-11-09T17:32:30;8.23;;;1.90;;
7789;SDS011;3939;57.130;-2.086;2022-11-09T17:34:56;15.25;;;2.70;;
7789;SDS011;3939;57.130;-2.086;2022-11-09T17:37:21;9.13;;;1.98;;
7789;SDS011;3939;57.130;-2.086;2022-11-09T17:39:48;5.28;;;1.75;;
7789;SDS011;3939;57.130;-2.086;2022-11-09T17:42:13;11.25;;;2.47;;
7789;SDS011;3939;57.130;-2.086;2022-11-09T17:44:39;11.52;;;2.92;;
7789;SDS011;3939;57.130;-2.086;2022-11-09T17:47:05;8.30;;;2.25;;
7789;SDS011;3939;57.130;-2.086;2022-11-09T17:49:30;9.00;;;2.78;;
7789;SDS011;3939;57.130;-2.086;2022-11-09T17:51:56;7.00;;;1.95;;
7789;SDS011;3939;57.130;-2.086;2022-11-09T17:54:22;12.27;;;2.78;;
7789;SDS011;3939;57.130;-2.086;2022-11-09T17:56:48;12.27;;;2.63;;